createdAt,value
2017-11-25T00:00:03.287Z,32.40
2017-11-25T00:01:03.284Z,35.30
2017-11-25T00:02:03.287Z,34.70
2017-11-25T00:03:03.278Z,51.00
2017-11-25T00:04:03.279Z,36.50
2017-11-25T00:05:03.278Z,34.40
2017-11-25T00:06:03.275Z,41.60
2017-11-25T00:07:03.324Z,33.80
2017-11-25T00:08:03.267Z,35.50
2017-11-25T00:09:03.264Z,33.10
2017-11-25T00:10:03.259Z,39.70
2017-11-25T00:11:03.258Z,42.30
2017-11-25T00:12:03.294Z,41.30
2017-11-25T00:13:03.252Z,38.80
2017-11-25T00:14:03.254Z,37.40
2017-11-25T00:15:03.246Z,43.60
2017-11-25T00:16:03.246Z,38.80
2017-11-25T00:17:03.242Z,38.70
2017-11-25T00:18:03.247Z,40.20
2017-11-25T00:19:03.238Z,37.60
2017-11-25T00:20:03.235Z,36.90
2017-11-25T00:21:03.236Z,41.00
2017-11-25T00:22:03.235Z,34.20
2017-11-25T00:23:03.236Z,33.00
2017-11-25T00:24:03.228Z,33.90
2017-11-25T00:25:03.235Z,35.80
2017-11-25T00:26:03.226Z,38.20
2017-11-25T00:27:03.218Z,31.40
2017-11-25T00:28:03.220Z,36.00
2017-11-25T00:29:03.211Z,32.30
2017-11-25T00:30:03.209Z,35.70
2017-11-25T00:31:03.216Z,37.30
2017-11-25T00:32:03.209Z,40.50
2017-11-25T00:33:03.206Z,36.30
2017-11-25T00:34:03.203Z,36.30
2017-11-25T00:35:03.201Z,38.50
2017-11-25T00:36:03.203Z,41.00
2017-11-25T00:37:03.202Z,39.90
2017-11-25T00:38:03.265Z,38.10
2017-11-25T00:39:03.194Z,36.90
2017-11-25T00:40:03.218Z,36.30
2017-11-25T00:41:03.186Z,37.20
2017-11-25T00:42:03.191Z,41.40
2017-11-25T00:43:03.183Z,35.40
2017-11-25T00:44:03.187Z,38.90
2017-11-25T00:45:03.182Z,37.10
2017-11-25T00:46:03.177Z,35.90
2017-11-25T00:47:03.174Z,48.20
2017-11-25T00:48:03.173Z,36.90
2017-11-25T00:49:03.173Z,36.90
2017-11-25T00:50:03.173Z,37.00
2017-11-25T00:51:03.167Z,39.60
2017-11-25T00:52:03.160Z,45.90
2017-11-25T00:53:03.164Z,39.70
2017-11-25T00:54:03.162Z,32.80
2017-11-25T00:55:03.163Z,38.80
2017-11-25T00:56:03.153Z,36.80
2017-11-25T00:57:03.154Z,38.10
2017-11-25T00:58:03.149Z,42.20
2017-11-25T00:59:03.144Z,42.20
2017-11-25T01:00:03.142Z,42.50
2017-11-25T01:01:03.143Z,42.60
2017-11-25T01:02:03.138Z,40.90
2017-11-25T01:03:03.138Z,41.50
2017-11-25T01:04:03.134Z,36.00
2017-11-25T01:05:03.145Z,42.90
2017-11-25T01:06:03.130Z,41.20
2017-11-25T01:07:03.133Z,40.40
2017-11-25T01:08:03.123Z,41.30
2017-11-25T01:09:03.128Z,36.50
2017-11-25T01:10:03.123Z,39.80
2017-11-25T01:11:03.119Z,38.70
2017-11-25T01:12:03.119Z,39.10
2017-11-25T01:13:03.111Z,44.50
2017-11-25T01:14:03.110Z,37.80
2017-11-25T01:15:03.110Z,44.30
2017-11-25T01:16:03.112Z,37.10
2017-11-25T01:17:03.112Z,40.20
2017-11-25T01:18:03.111Z,38.70
2017-11-25T01:19:03.104Z,42.60
2017-11-25T01:20:03.101Z,39.90
2017-11-25T01:21:03.095Z,41.90
2017-11-25T01:22:03.113Z,42.20
2017-11-25T01:23:03.096Z,43.20
2017-11-25T01:24:03.086Z,41.60
2017-11-25T01:25:03.089Z,41.40
2017-11-25T01:26:03.089Z,39.60
2017-11-25T01:27:03.089Z,36.70
2017-11-25T01:28:03.081Z,35.60
2017-11-25T01:29:03.085Z,38.40
2017-11-25T01:30:03.080Z,40.70
2017-11-25T01:31:03.073Z,36.70
2017-11-25T01:32:03.072Z,37.20
2017-11-25T01:33:03.077Z,37.30
2017-11-25T01:34:03.068Z,41.60
2017-11-25T01:35:03.074Z,37.60
2017-11-25T01:36:03.095Z,42.40
2017-11-25T01:37:03.064Z,46.80
2017-11-25T01:38:03.060Z,40.00
2017-11-25T01:39:03.056Z,35.20
2017-11-25T01:40:03.094Z,39.00
2017-11-25T01:41:03.059Z,39.10
2017-11-25T01:42:03.055Z,36.90
2017-11-25T01:43:03.049Z,38.40
2017-11-25T01:44:03.051Z,35.80
2017-11-25T01:45:03.058Z,31.50
2017-11-25T01:46:03.056Z,38.70
2017-11-25T01:47:03.048Z,36.70
2017-11-25T01:48:03.049Z,35.50
2017-11-25T01:49:03.034Z,39.10
2017-11-25T01:50:03.053Z,42.00
2017-11-25T01:51:03.034Z,42.70
2017-11-25T01:52:03.037Z,40.50
2017-11-25T01:53:03.039Z,38.90
2017-11-25T01:54:03.030Z,36.60
2017-11-25T01:55:03.027Z,37.40
2017-11-25T01:56:03.024Z,40.70
2017-11-25T01:57:03.017Z,42.10
2017-11-25T01:58:03.028Z,39.30
2017-11-25T01:59:03.014Z,43.40
2017-11-25T02:00:03.012Z,39.60
2017-11-25T02:01:03.013Z,40.20
2017-11-25T02:02:03.008Z,43.00
2017-11-25T02:03:03.011Z,39.80
2017-11-25T02:04:03.004Z,38.00
2017-11-25T02:05:03.002Z,42.50
2017-11-25T02:06:02.998Z,40.10
2017-11-25T02:07:03.005Z,38.80
2017-11-25T02:08:02.997Z,33.90
2017-11-25T02:09:03.005Z,39.60
2017-11-25T02:10:02.993Z,36.20
2017-11-25T02:11:02.992Z,39.40
2017-11-25T02:12:02.988Z,37.80
2017-11-25T02:13:02.989Z,37.20
2017-11-25T02:14:02.984Z,38.20
2017-11-25T02:15:02.988Z,42.10
2017-11-25T02:16:02.980Z,42.00
2017-11-25T02:17:02.975Z,40.60
2017-11-25T02:18:02.973Z,42.30
2017-11-25T02:19:02.972Z,42.80
2017-11-25T02:20:02.972Z,36.90
2017-11-25T02:21:02.971Z,38.40
2017-11-25T02:22:02.964Z,36.50
2017-11-25T02:23:02.970Z,33.90
2017-11-25T02:24:02.964Z,39.80
2017-11-25T02:25:02.967Z,37.80
2017-11-25T02:26:02.956Z,40.10
2017-11-25T02:27:02.970Z,32.00
2017-11-25T02:28:02.955Z,42.30
2017-11-25T02:29:02.955Z,36.40
2017-11-25T02:30:02.951Z,40.80
2017-11-25T02:31:02.957Z,37.90
2017-11-25T02:32:02.945Z,36.60
2017-11-25T02:33:02.951Z,36.60
2017-11-25T02:34:02.976Z,38.10
2017-11-25T02:35:02.942Z,39.30
2017-11-25T02:36:02.940Z,36.00
2017-11-25T02:37:02.935Z,38.60
2017-11-25T02:38:02.933Z,39.20
2017-11-25T02:39:02.930Z,40.40
2017-11-25T02:40:02.941Z,40.40
2017-11-25T02:41:02.931Z,40.10
2017-11-25T02:42:02.924Z,43.50
2017-11-25T02:43:02.926Z,46.10
2017-11-25T02:44:02.919Z,40.70
2017-11-25T02:45:02.919Z,40.90
2017-11-25T02:46:02.914Z,38.00
2017-11-25T02:47:02.915Z,38.90
2017-11-25T02:48:02.910Z,37.20
2017-11-25T02:49:02.914Z,41.90
2017-11-25T02:50:02.907Z,38.50
2017-11-25T02:51:02.909Z,37.00
2017-11-25T02:52:02.905Z,39.60
2017-11-25T02:53:02.901Z,37.40
2017-11-25T02:54:02.904Z,36.20
2017-11-25T02:55:02.894Z,31.40
2017-11-25T02:56:02.899Z,35.60
2017-11-25T02:57:02.895Z,37.40
2017-11-25T02:58:02.889Z,35.20
2017-11-25T02:59:02.886Z,37.20
2017-11-25T03:00:02.889Z,44.10
2017-11-25T03:01:02.891Z,38.20
2017-11-25T03:02:02.883Z,40.40
2017-11-25T03:03:02.893Z,40.20
2017-11-25T03:04:02.877Z,43.80
2017-11-25T03:05:02.876Z,45.50
2017-11-25T03:06:02.873Z,39.50
2017-11-25T03:07:02.872Z,37.50
2017-11-25T03:08:02.871Z,38.60
2017-11-25T03:09:02.875Z,37.20
2017-11-25T03:10:02.866Z,32.60
2017-11-25T03:11:02.859Z,40.60
2017-11-25T03:12:02.863Z,40.40
2017-11-25T03:13:02.863Z,40.10
2017-11-25T03:14:02.854Z,38.70
2017-11-25T03:15:02.865Z,39.70
2017-11-25T03:16:02.853Z,37.90
2017-11-25T03:17:02.853Z,39.00
2017-11-25T03:18:02.845Z,41.50
2017-11-25T03:19:02.849Z,36.90
2017-11-25T03:20:02.851Z,46.20
2017-11-25T03:21:02.845Z,38.00
2017-11-25T03:22:02.851Z,48.60
2017-11-25T03:23:02.839Z,41.50
2017-11-25T03:24:02.847Z,39.10
2017-11-25T03:25:02.838Z,39.20
2017-11-25T03:26:02.831Z,39.60
2017-11-25T03:27:02.832Z,39.40
2017-11-25T03:28:02.825Z,45.30
2017-11-25T03:29:02.825Z,43.10
2017-11-25T03:30:02.823Z,36.00
2017-11-25T03:31:02.821Z,38.60
2017-11-25T03:32:02.819Z,39.20
2017-11-25T03:33:02.813Z,44.00
2017-11-25T03:34:02.823Z,42.80
2017-11-25T03:35:02.811Z,42.50
2017-11-25T03:36:02.812Z,42.80
2017-11-25T03:37:02.813Z,37.20
2017-11-25T03:38:02.837Z,36.10
2017-11-25T03:39:02.803Z,38.30
2017-11-25T03:40:02.803Z,39.70
2017-11-25T03:41:02.804Z,38.40
2017-11-25T03:42:02.796Z,35.60
2017-11-25T03:43:02.794Z,43.80
2017-11-25T03:44:02.796Z,37.90
2017-11-25T03:45:02.790Z,38.70
2017-11-25T03:46:02.787Z,35.00
2017-11-25T03:47:02.791Z,39.10
2017-11-25T03:48:02.790Z,38.20
2017-11-25T03:49:02.778Z,33.50
2017-11-25T03:50:02.782Z,41.90
2017-11-25T03:51:02.779Z,41.90
2017-11-25T03:52:02.777Z,39.80
2017-11-25T03:53:02.773Z,37.30
2017-11-25T03:54:02.771Z,40.40
2017-11-25T03:55:02.776Z,37.80
2017-11-25T03:56:02.772Z,36.80
2017-11-25T03:57:02.765Z,36.10
2017-11-25T03:58:02.768Z,36.60
2017-11-25T03:59:02.761Z,36.80
2017-11-25T04:00:02.760Z,37.60
2017-11-25T04:01:02.754Z,37.30
2017-11-25T04:02:02.754Z,36.20
2017-11-25T04:03:02.762Z,36.40
2017-11-25T04:04:02.755Z,31.90
2017-11-25T04:05:02.747Z,36.70
2017-11-25T04:06:02.774Z,41.50
2017-11-25T04:07:02.756Z,42.10
2017-11-25T04:08:02.742Z,35.10
2017-11-25T04:09:02.743Z,41.20
2017-11-25T04:10:02.741Z,41.60
2017-11-25T04:11:02.741Z,44.80
2017-11-25T04:12:02.738Z,42.90
2017-11-25T04:13:02.733Z,41.20
2017-11-25T04:14:02.726Z,37.60
2017-11-25T04:15:03.439Z,37.70
2017-11-25T04:16:02.742Z,39.90
2017-11-25T04:17:02.723Z,37.70
2017-11-25T04:18:02.718Z,36.80
2017-11-25T04:19:02.720Z,38.50
2017-11-25T04:20:02.713Z,40.40
2017-11-25T04:21:02.713Z,42.00
2017-11-25T04:22:02.710Z,41.30
2017-11-25T04:23:02.710Z,40.60
2017-11-25T04:24:02.704Z,37.10
2017-11-25T04:25:02.705Z,38.90
2017-11-25T04:26:02.700Z,39.90
2017-11-25T04:27:02.704Z,40.70
2017-11-25T04:28:02.702Z,41.70
2017-11-25T04:29:02.695Z,41.20
2017-11-25T04:30:02.695Z,48.40
2017-11-25T04:31:02.693Z,38.60
2017-11-25T04:32:02.687Z,62.70
2017-11-25T04:33:02.686Z,49.10
2017-11-25T04:34:02.687Z,54.60
2017-11-25T04:35:02.681Z,52.60
2017-11-25T04:36:02.682Z,137.70
2017-11-25T04:37:02.677Z,151.00
2017-11-25T04:38:02.680Z,140.70
2017-11-25T04:39:02.680Z,125.30
2017-11-25T04:40:02.673Z,116.10
2017-11-25T04:41:02.674Z,68.30
2017-11-25T04:42:02.670Z,42.90
2017-11-25T04:43:02.674Z,49.90
2017-11-25T04:44:02.669Z,44.30
2017-11-25T04:45:02.665Z,40.80
2017-11-25T04:46:02.655Z,48.90
2017-11-25T04:47:02.657Z,43.50
2017-11-25T04:48:02.657Z,43.10
2017-11-25T04:49:02.653Z,44.30
2017-11-25T04:50:02.655Z,44.00
2017-11-25T04:51:02.650Z,45.10
2017-11-25T04:52:02.644Z,42.90
2017-11-25T04:53:02.646Z,49.50
2017-11-25T04:54:02.645Z,54.00
2017-11-25T04:55:02.638Z,40.40
2017-11-25T04:56:02.644Z,50.60
2017-11-25T04:57:02.638Z,45.80
2017-11-25T04:58:02.631Z,53.60
2017-11-25T04:59:02.634Z,44.00
2017-11-25T05:00:02.634Z,37.40
2017-11-25T05:01:02.630Z,44.30
2017-11-25T05:02:02.627Z,42.80
2017-11-25T05:03:02.627Z,43.60
2017-11-25T05:04:02.617Z,41.70
2017-11-25T05:05:02.626Z,45.90
2017-11-25T05:06:02.616Z,42.60
2017-11-25T05:07:02.611Z,47.60
2017-11-25T05:08:02.611Z,42.40
2017-11-25T05:09:02.610Z,42.70
2017-11-25T05:10:02.609Z,43.50
2017-11-25T05:11:02.603Z,43.00
2017-11-25T05:12:02.602Z,45.10
2017-11-25T05:13:02.598Z,39.30
2017-11-25T05:14:02.610Z,38.90
2017-11-25T05:15:02.604Z,44.30
2017-11-25T05:16:02.593Z,40.90
2017-11-25T05:17:02.601Z,42.70
2017-11-25T05:18:02.588Z,45.30
2017-11-25T05:19:02.587Z,45.30
2017-11-25T05:20:02.587Z,41.60
2017-11-25T05:21:02.585Z,38.70
2017-11-25T05:22:02.579Z,42.60
2017-11-25T05:23:02.580Z,38.70
2017-11-25T05:24:02.581Z,42.80
2017-11-25T05:25:02.578Z,43.20
2017-11-25T05:26:02.570Z,46.10
2017-11-25T05:27:02.570Z,44.50
2017-11-25T05:28:02.573Z,41.80
2017-11-25T05:29:02.563Z,45.80
2017-11-25T05:30:02.564Z,43.50
2017-11-25T05:31:02.564Z,42.90
2017-11-25T05:32:02.564Z,44.20
2017-11-25T05:33:02.557Z,48.20
2017-11-25T05:34:02.555Z,47.70
2017-11-25T05:35:02.555Z,45.60
2017-11-25T05:36:02.555Z,46.40
2017-11-25T05:37:02.549Z,46.60
2017-11-25T05:38:02.544Z,45.50
2017-11-25T05:39:02.544Z,43.30
2017-11-25T05:40:02.540Z,49.90
2017-11-25T05:41:02.541Z,46.60
2017-11-25T05:42:02.536Z,47.10
2017-11-25T05:43:02.533Z,41.60
2017-11-25T05:44:02.536Z,46.20
2017-11-25T05:45:02.541Z,40.90
2017-11-25T05:46:02.529Z,42.50
2017-11-25T05:47:02.525Z,47.20
2017-11-25T05:48:02.529Z,47.50
2017-11-25T05:49:02.524Z,42.30
2017-11-25T05:50:02.519Z,43.30
2017-11-25T05:51:02.521Z,58.20
2017-11-25T05:52:02.521Z,49.00
2017-11-25T05:53:02.515Z,45.50
2017-11-25T05:54:02.515Z,43.50
2017-11-25T05:55:02.510Z,47.50
2017-11-25T05:56:02.513Z,44.40
2017-11-25T05:57:02.503Z,47.40
2017-11-25T05:58:02.502Z,45.20
2017-11-25T05:59:02.502Z,40.50
2017-11-25T06:00:02.504Z,42.10
2017-11-25T06:01:02.506Z,42.10
2017-11-25T06:02:02.494Z,38.10
2017-11-25T06:03:02.519Z,46.00
2017-11-25T06:04:02.493Z,50.90
2017-11-25T06:05:02.489Z,47.70
2017-11-25T06:06:02.490Z,39.00
2017-11-25T06:07:02.484Z,39.30
2017-11-25T06:08:02.517Z,49.20
2017-11-25T06:09:02.486Z,40.00
2017-11-25T06:10:02.478Z,42.40
2017-11-25T06:11:02.480Z,39.70
2017-11-25T06:12:02.479Z,40.40
2017-11-25T06:13:02.470Z,40.30
2017-11-25T06:14:02.480Z,40.10
2017-11-25T06:15:02.466Z,41.20
2017-11-25T06:16:02.464Z,38.60
2017-11-25T06:17:02.467Z,42.30
2017-11-25T06:18:02.480Z,39.30
2017-11-25T06:19:02.456Z,41.60
2017-11-25T06:20:02.456Z,40.50
2017-11-25T06:21:02.457Z,39.00
2017-11-25T06:22:02.451Z,40.10
2017-11-25T06:23:02.447Z,39.80
2017-11-25T06:24:02.448Z,42.90
2017-11-25T06:25:02.452Z,38.10
2017-11-25T06:26:02.440Z,42.70
2017-11-25T06:27:02.444Z,43.70
2017-11-25T06:28:02.440Z,39.20
2017-11-25T06:29:02.431Z,32.90
2017-11-25T06:30:02.433Z,37.40
2017-11-25T06:31:02.432Z,38.70
2017-11-25T06:32:02.432Z,42.10
2017-11-25T06:33:02.424Z,34.30
2017-11-25T06:34:02.424Z,38.70
2017-11-25T06:35:02.425Z,36.90
2017-11-25T06:36:02.424Z,43.80
2017-11-25T06:37:02.422Z,38.90
2017-11-25T06:38:02.416Z,36.30
2017-11-25T06:39:02.414Z,39.90
2017-11-25T06:40:02.413Z,35.20
2017-11-25T06:41:02.410Z,34.30
2017-11-25T06:42:02.410Z,40.60
2017-11-25T06:43:02.409Z,34.60
2017-11-25T06:44:02.400Z,42.70
2017-11-25T06:45:02.402Z,34.90
2017-11-25T06:46:02.404Z,34.80
2017-11-25T06:47:02.403Z,44.10
2017-11-25T06:48:02.393Z,35.70
2017-11-25T06:49:02.394Z,40.60
2017-11-25T06:50:02.390Z,34.60
2017-11-25T06:51:02.386Z,41.70
2017-11-25T06:52:02.386Z,39.50
2017-11-25T06:53:02.384Z,38.10
2017-11-25T06:54:02.385Z,45.30
2017-11-25T06:55:02.383Z,36.30
2017-11-25T06:56:02.379Z,38.90
2017-11-25T06:57:02.372Z,34.60
2017-11-25T06:58:02.371Z,42.20
2017-11-25T06:59:02.372Z,37.90
2017-11-25T07:00:02.379Z,36.70
2017-11-25T07:01:02.365Z,33.00
2017-11-25T07:02:02.364Z,34.50
2017-11-25T07:03:02.367Z,36.20
2017-11-25T07:04:02.363Z,33.70
2017-11-25T07:05:02.358Z,37.40
2017-11-25T07:06:02.366Z,39.30
2017-11-25T07:07:02.355Z,42.10
2017-11-25T07:08:02.354Z,33.60
2017-11-25T07:09:02.347Z,38.10
2017-11-25T07:10:02.348Z,36.00
2017-11-25T07:11:02.346Z,44.20
2017-11-25T07:12:02.345Z,39.40
2017-11-25T07:13:02.348Z,49.90
2017-11-25T07:14:02.340Z,46.10
2017-11-25T07:15:02.334Z,34.90
2017-11-25T07:16:02.346Z,43.30
2017-11-25T07:17:02.338Z,39.60
2017-11-25T07:18:02.333Z,37.80
2017-11-25T07:19:02.326Z,41.00
2017-11-25T07:20:02.331Z,40.30
2017-11-25T07:21:02.323Z,42.70
2017-11-25T07:22:02.322Z,48.10
2017-11-25T07:23:02.318Z,38.70
2017-11-25T07:24:02.315Z,45.00
2017-11-25T07:25:02.313Z,42.60
2017-11-25T07:26:02.315Z,36.90
2017-11-25T07:27:02.310Z,37.70
2017-11-25T07:28:02.307Z,43.90
2017-11-25T07:29:02.307Z,40.90
2017-11-25T07:30:02.315Z,38.10
2017-11-25T07:31:02.308Z,36.00
2017-11-25T07:32:02.296Z,39.20
2017-11-25T07:33:02.294Z,37.60
2017-11-25T07:34:02.302Z,34.90
2017-11-25T07:35:02.293Z,30.10
2017-11-25T07:36:02.292Z,34.90
2017-11-25T07:37:02.286Z,32.00
2017-11-25T07:38:02.285Z,38.20
2017-11-25T07:39:02.291Z,38.30
2017-11-25T07:40:02.279Z,39.60
2017-11-25T07:41:02.279Z,42.90
2017-11-25T07:42:02.275Z,39.20
2017-11-25T07:43:02.276Z,39.50
2017-11-25T07:44:02.276Z,39.10
2017-11-25T07:45:02.275Z,33.50
2017-11-25T07:46:02.272Z,39.60
2017-11-25T07:47:02.262Z,33.60
2017-11-25T07:48:02.262Z,38.90
2017-11-25T07:49:02.263Z,32.80
2017-11-25T07:50:02.260Z,36.20
2017-11-25T07:51:02.256Z,38.60
2017-11-25T07:52:02.256Z,39.00
2017-11-25T07:53:02.252Z,34.30
2017-11-25T07:54:02.250Z,34.60
2017-11-25T07:55:02.247Z,31.20
2017-11-25T07:56:02.245Z,34.40
2017-11-25T07:57:02.245Z,36.60
2017-11-25T07:58:02.242Z,37.60
2017-11-25T07:59:02.239Z,32.30
2017-11-25T08:00:02.241Z,37.10
2017-11-25T08:01:02.240Z,35.00
2017-11-25T08:02:02.232Z,30.90
2017-11-25T08:03:02.233Z,33.90
2017-11-25T08:04:02.231Z,35.60
2017-11-25T08:05:02.231Z,34.80
2017-11-25T08:06:02.225Z,40.40
2017-11-25T08:07:02.263Z,34.80
2017-11-25T08:08:02.216Z,33.30
2017-11-25T08:09:02.226Z,35.30
2017-11-25T08:10:02.214Z,40.10
2017-11-25T08:11:02.213Z,32.50
2017-11-25T08:12:02.210Z,33.40
2017-11-25T08:13:02.212Z,31.40
2017-11-25T08:14:02.210Z,37.30
2017-11-25T08:15:02.223Z,33.20
2017-11-25T08:16:02.202Z,37.90
2017-11-25T08:17:02.202Z,34.00
2017-11-25T08:18:02.195Z,41.10
2017-11-25T08:19:02.196Z,39.80
2017-11-25T08:20:02.205Z,34.50
2017-11-25T08:21:02.192Z,33.00
2017-11-25T08:22:02.190Z,39.00
2017-11-25T08:23:02.185Z,36.50
2017-11-25T08:24:02.184Z,32.90
2017-11-25T08:25:02.192Z,32.70
2017-11-25T08:26:02.181Z,33.20
2017-11-25T08:27:02.174Z,34.30
2017-11-25T08:28:02.173Z,37.80
2017-11-25T08:29:02.174Z,34.20
2017-11-25T08:30:02.175Z,35.40
2017-11-25T08:31:02.171Z,40.20
2017-11-25T08:32:02.164Z,31.60
2017-11-25T08:33:02.167Z,35.70
2017-11-25T08:34:02.158Z,34.90
2017-11-25T08:35:02.162Z,34.60
2017-11-25T08:36:02.158Z,42.40
2017-11-25T08:37:02.156Z,41.10
2017-11-25T08:38:02.152Z,31.50
2017-11-25T08:39:02.147Z,40.00
2017-11-25T08:40:02.145Z,37.20
2017-11-25T08:41:02.147Z,32.70
2017-11-25T08:42:02.144Z,36.10
2017-11-25T08:43:02.146Z,29.80
2017-11-25T08:44:02.137Z,34.00
2017-11-25T08:45:02.142Z,35.70
2017-11-25T08:46:02.131Z,32.00
2017-11-25T08:47:02.131Z,35.60
2017-11-25T08:48:02.132Z,37.60
2017-11-25T08:49:02.128Z,37.90
2017-11-25T08:50:02.125Z,43.60
2017-11-25T08:51:03.556Z,38.10
2017-11-25T08:52:02.527Z,42.30
2017-11-25T08:53:02.540Z,37.90
2017-11-25T08:54:02.123Z,42.70
2017-11-25T08:55:02.115Z,32.80
2017-11-25T08:56:02.116Z,35.00
2017-11-25T08:57:02.108Z,35.70
2017-11-25T08:58:02.102Z,34.10
2017-11-25T08:59:02.103Z,36.90
2017-11-25T09:00:02.101Z,38.00
2017-11-25T09:01:02.099Z,38.40
2017-11-25T09:02:02.097Z,38.80
2017-11-25T09:03:02.093Z,38.80
2017-11-25T09:04:02.097Z,37.00
2017-11-25T09:05:02.091Z,38.10
2017-11-25T09:06:02.089Z,37.90
2017-11-25T09:07:02.094Z,40.00
2017-11-25T09:08:02.086Z,44.90
2017-11-25T09:09:02.079Z,40.70
2017-11-25T09:10:02.080Z,44.80
2017-11-25T09:11:02.072Z,39.60
2017-11-25T09:12:02.072Z,34.50
2017-11-25T09:13:02.075Z,39.10
2017-11-25T09:14:02.064Z,34.80
2017-11-25T09:15:02.066Z,37.60
2017-11-25T09:16:02.059Z,36.70
2017-11-25T09:17:02.071Z,39.90
2017-11-25T09:18:02.058Z,38.50
2017-11-25T09:19:02.058Z,41.10
2017-11-25T09:20:02.065Z,36.90
2017-11-25T09:21:02.051Z,37.20
2017-11-25T09:22:02.052Z,34.10
2017-11-25T09:23:02.061Z,43.20
2017-11-25T09:24:02.045Z,43.80
2017-11-25T09:25:02.045Z,38.10
2017-11-25T09:26:02.037Z,42.60
2017-11-25T09:27:02.036Z,32.60
2017-11-25T09:28:02.035Z,43.70
2017-11-25T09:29:02.034Z,37.60
2017-11-25T09:30:02.027Z,40.90
2017-11-25T09:31:02.027Z,40.80
2017-11-25T09:32:02.028Z,38.50
2017-11-25T09:33:02.029Z,42.80
2017-11-25T09:34:02.021Z,44.70
2017-11-25T09:35:02.026Z,45.40
2017-11-25T09:36:02.020Z,41.10
2017-11-25T09:37:02.012Z,39.40
2017-11-25T09:38:02.015Z,38.20
2017-11-25T09:39:02.006Z,39.20
2017-11-25T09:40:02.007Z,41.80
2017-11-25T09:41:02.006Z,40.60
2017-11-25T09:42:01.998Z,42.70
2017-11-25T09:43:02.002Z,38.60
2017-11-25T09:44:02.001Z,44.10
2017-11-25T09:45:01.999Z,47.20
2017-11-25T09:46:01.991Z,43.60
2017-11-25T09:47:01.991Z,43.10
2017-11-25T09:48:02.001Z,43.70
2017-11-25T09:49:01.990Z,42.10
2017-11-25T09:50:01.981Z,45.60
2017-11-25T09:51:01.981Z,45.40
2017-11-25T09:52:01.977Z,48.50
2017-11-25T09:53:01.980Z,40.60
2017-11-25T09:54:01.973Z,43.40
2017-11-25T09:55:01.975Z,39.90
2017-11-25T09:56:01.971Z,42.30
2017-11-25T09:57:01.971Z,40.50
2017-11-25T09:58:01.976Z,41.60
2017-11-25T09:59:01.980Z,37.10
2017-11-25T10:00:01.954Z,43.50
2017-11-25T10:01:01.967Z,41.50
2017-11-25T10:02:01.953Z,40.30
2017-11-25T10:03:01.951Z,38.10
2017-11-25T10:04:01.948Z,46.00
2017-11-25T10:05:01.950Z,41.90
2017-11-25T10:06:01.942Z,42.20
2017-11-25T10:07:01.948Z,40.80
2017-11-25T10:08:01.946Z,34.80
2017-11-25T10:09:01.937Z,44.90
2017-11-25T10:10:01.934Z,37.90
2017-11-25T10:11:01.930Z,44.60
2017-11-25T10:12:01.927Z,42.10
2017-11-25T10:13:01.934Z,33.80
2017-11-25T10:14:01.927Z,39.10
2017-11-25T10:15:01.922Z,38.40
2017-11-25T10:16:01.915Z,39.80
2017-11-25T10:17:01.916Z,40.70
2017-11-25T10:18:01.915Z,38.40
2017-11-25T10:19:01.911Z,36.00
2017-11-25T10:20:01.906Z,43.10
2017-11-25T10:21:01.904Z,33.70
2017-11-25T10:22:01.906Z,48.00
2017-11-25T10:23:01.894Z,41.80
2017-11-25T10:24:01.895Z,42.60
2017-11-25T10:25:01.895Z,40.60
2017-11-25T10:26:01.889Z,42.50
2017-11-25T10:27:01.891Z,36.70
2017-11-25T10:28:01.887Z,39.30
2017-11-25T10:29:01.881Z,29.90
2017-11-25T10:30:01.882Z,34.40
2017-11-25T10:31:01.875Z,37.60
2017-11-25T10:32:01.875Z,34.80
2017-11-25T10:33:01.873Z,32.90
2017-11-25T10:34:01.873Z,31.60
2017-11-25T10:35:01.868Z,35.80
2017-11-25T10:36:01.866Z,35.80
2017-11-25T10:37:01.891Z,32.00
2017-11-25T10:38:01.863Z,40.80
2017-11-25T10:39:01.859Z,41.00
2017-11-25T10:40:01.853Z,38.10
2017-11-25T10:41:01.861Z,43.40
2017-11-25T10:42:01.852Z,37.80
2017-11-25T10:43:01.852Z,37.10
2017-11-25T10:44:01.845Z,39.50
2017-11-25T10:45:01.851Z,42.10
2017-11-25T10:46:01.846Z,41.00
2017-11-25T10:47:01.842Z,37.40
2017-11-25T10:48:01.834Z,39.20
2017-11-25T10:49:01.838Z,39.30
2017-11-25T10:50:01.829Z,35.80
2017-11-25T10:51:01.828Z,52.90
2017-11-25T10:52:01.835Z,37.50
2017-11-25T10:53:01.825Z,41.30
2017-11-25T10:54:01.824Z,38.00
2017-11-25T10:55:01.822Z,32.10
2017-11-25T10:56:01.816Z,34.20
2017-11-25T10:57:01.822Z,32.70
2017-11-25T10:58:01.816Z,34.00
2017-11-25T10:59:01.810Z,33.60
2017-11-25T11:00:01.810Z,31.90
2017-11-25T11:01:01.810Z,38.00
2017-11-25T11:02:01.800Z,43.00
2017-11-25T11:03:01.803Z,34.30
2017-11-25T11:04:01.804Z,32.00
2017-11-25T11:05:01.809Z,33.50
2017-11-25T11:06:01.798Z,31.50
2017-11-25T11:07:01.791Z,29.50
2017-11-25T11:08:01.791Z,30.40
2017-11-25T11:09:01.790Z,28.40
2017-11-25T11:10:01.792Z,27.60
2017-11-25T11:11:01.786Z,37.20
2017-11-25T11:12:01.787Z,31.20
2017-11-25T11:13:01.784Z,35.30
2017-11-25T11:14:01.775Z,33.40
2017-11-25T11:15:01.775Z,30.30
2017-11-25T11:16:01.775Z,43.20
2017-11-25T11:17:01.770Z,34.70
2017-11-25T11:18:01.765Z,37.00
2017-11-25T11:19:01.765Z,38.80
2017-11-25T11:20:01.761Z,36.80
2017-11-25T11:21:01.764Z,42.90
2017-11-25T11:22:01.758Z,28.90
2017-11-25T11:23:01.756Z,31.80
2017-11-25T11:24:01.755Z,32.60
2017-11-25T11:25:01.749Z,27.80
2017-11-25T11:26:01.750Z,25.90
2017-11-25T11:27:01.745Z,24.70
2017-11-25T11:28:01.745Z,25.90
2017-11-25T11:29:01.745Z,30.60
2017-11-25T11:30:01.769Z,24.80
2017-11-25T11:31:01.741Z,31.20
2017-11-25T11:32:01.736Z,27.90
2017-11-25T11:33:01.735Z,26.90
2017-11-25T11:34:01.734Z,25.10
2017-11-25T11:35:01.728Z,27.20
2017-11-25T11:36:01.729Z,26.30
2017-11-25T11:37:01.735Z,31.90
2017-11-25T11:38:01.756Z,25.80
2017-11-25T11:39:01.725Z,32.10
2017-11-25T11:40:01.719Z,28.90
2017-11-25T11:41:01.721Z,25.20
2017-11-25T11:42:01.723Z,28.20
2017-11-25T11:43:01.729Z,29.50
2017-11-25T11:44:01.706Z,29.70
2017-11-25T11:45:01.712Z,32.00
2017-11-25T11:46:01.713Z,26.60
2017-11-25T11:47:01.706Z,30.50
2017-11-25T11:48:01.705Z,32.80
2017-11-25T11:49:01.714Z,25.80
2017-11-25T11:50:01.695Z,29.90
2017-11-25T11:51:01.694Z,25.40
2017-11-25T11:52:01.706Z,28.50
2017-11-25T11:53:01.695Z,27.20
2017-11-25T11:54:01.696Z,27.00
2017-11-25T11:55:01.691Z,27.30
2017-11-25T11:56:01.689Z,31.60
2017-11-25T11:57:01.684Z,28.00
2017-11-25T11:58:01.687Z,24.10
2017-11-25T11:59:01.679Z,28.80
2017-11-25T12:00:01.680Z,23.70
2017-11-25T12:01:01.677Z,26.20
2017-11-25T12:02:01.676Z,27.00
2017-11-25T12:03:01.672Z,24.40
2017-11-25T12:04:01.672Z,27.20
2017-11-25T12:05:01.674Z,26.60
2017-11-25T12:06:01.675Z,25.20
2017-11-25T12:07:01.666Z,24.00
2017-11-25T12:08:01.666Z,27.90
2017-11-25T12:09:01.674Z,26.40
2017-11-25T12:10:01.680Z,37.20
2017-11-25T12:11:01.663Z,50.30
2017-11-25T12:12:01.660Z,67.30
2017-11-25T12:13:01.660Z,48.00
2017-11-25T12:14:01.652Z,38.20
2017-11-25T12:15:01.652Z,37.00
2017-11-25T12:16:01.653Z,46.10
2017-11-25T12:17:01.656Z,31.10
2017-11-25T12:18:01.644Z,30.30
2017-11-25T12:19:01.649Z,35.00
2017-11-25T12:20:01.644Z,27.40
2017-11-25T12:21:01.646Z,28.20
2017-11-25T12:22:01.638Z,33.20
2017-11-25T12:23:01.636Z,30.40
2017-11-25T12:24:01.636Z,27.30
2017-11-25T12:25:01.641Z,31.80
2017-11-25T12:26:01.635Z,30.80
2017-11-25T12:27:01.640Z,33.80
2017-11-25T12:28:01.631Z,29.70
2017-11-25T12:29:01.624Z,35.60
2017-11-25T12:30:01.626Z,29.90
2017-11-25T12:31:01.622Z,46.20
2017-11-25T12:32:01.635Z,33.80
2017-11-25T12:33:01.626Z,31.30
2017-11-25T12:34:01.616Z,29.30
2017-11-25T12:35:01.618Z,26.00
2017-11-25T12:36:01.657Z,31.60
2017-11-25T12:37:01.618Z,32.20
2017-11-25T12:38:01.618Z,31.60
2017-11-25T12:39:01.615Z,32.60
2017-11-25T12:40:01.604Z,27.10
2017-11-25T12:41:01.610Z,29.30
2017-11-25T12:42:01.602Z,31.90
2017-11-25T12:43:01.609Z,27.20
2017-11-25T12:44:01.597Z,27.40
2017-11-25T12:45:01.603Z,34.10
2017-11-25T12:46:01.597Z,34.90
2017-11-25T12:47:01.595Z,28.50
2017-11-25T12:48:01.595Z,28.90
2017-11-25T12:49:01.591Z,32.90
2017-11-25T12:50:01.589Z,25.20
2017-11-25T12:51:01.588Z,31.20
2017-11-25T12:52:01.584Z,28.30